createdAt,value
2022-08-02T00:01:08.740Z,20.80
2022-08-02T00:11:13.697Z,20.60
2022-08-02T00:21:16.919Z,20.50
2022-08-02T00:31:21.895Z,20.50
2022-08-02T00:41:25.837Z,20.30
2022-08-02T00:51:29.334Z,20.20
2022-08-02T01:01:56.602Z,20.10
2022-08-02T01:12:02.655Z,20.30
2022-08-02T01:23:01.186Z,20.00
2022-08-02T01:33:07.254Z,19.90
2022-08-02T01:43:12.260Z,19.80
2022-08-02T01:53:17.113Z,19.60
2022-08-02T02:03:24.875Z,19.50
2022-08-02T02:13:33.878Z,19.50
2022-08-02T02:23:37.717Z,19.40
2022-08-02T02:34:02.498Z,19.30
2022-08-02T02:44:06.417Z,19.30
2022-08-02T02:54:31.016Z,19.10
2022-08-02T03:04:55.809Z,18.90
2022-08-02T03:14:55.616Z,18.90
2022-08-02T03:24:57.736Z,18.80
2022-08-02T03:35:01.112Z,18.70
2022-08-02T03:45:08.805Z,18.50
2022-08-02T03:55:13.367Z,18.60
2022-08-02T04:05:17.412Z,18.60
2022-08-02T04:15:19.932Z,18.40
2022-08-02T04:25:38.193Z,18.40
2022-08-02T04:35:43.278Z,18.40
2022-08-02T04:45:47.241Z,18.30
2022-08-02T04:55:50.538Z,18.30
2022-08-02T05:05:57.130Z,18.40
2022-08-02T05:16:04.075Z,18.40
2022-08-02T05:26:06.977Z,18.80
2022-08-02T05:36:11.321Z,18.70
2022-08-02T05:46:19.392Z,19.00
2022-08-02T05:56:42.021Z,19.00
2022-08-02T06:06:50.458Z,19.30
2022-08-02T06:16:55.319Z,19.30
2022-08-02T06:27:00.021Z,19.40
2022-08-02T06:37:17.741Z,19.70
2022-08-02T06:47:19.898Z,20.10
2022-08-02T06:57:22.201Z,20.10
2022-08-02T07:07:24.418Z,20.20
2022-08-02T07:17:26.284Z,20.40
2022-08-02T07:27:29.219Z,21.20
2022-08-02T07:37:54.204Z,22.00
2022-08-02T07:47:58.816Z,23.30
2022-08-02T07:58:01.095Z,24.10
2022-08-02T08:08:03.037Z,25.00
2022-08-02T08:18:04.878Z,25.80
2022-08-02T08:28:06.675Z,26.00
2022-08-02T08:38:08.460Z,26.50
2022-08-02T08:48:30.546Z,27.40
2022-08-02T08:58:34.797Z,27.50
2022-08-02T09:08:36.899Z,27.80
2022-08-02T09:18:41.705Z,28.20
2022-08-02T09:28:45.677Z,28.30
2022-08-02T09:39:08.294Z,29.00
2022-08-02T09:49:13.429Z,29.50
2022-08-02T09:59:16.119Z,29.70
2022-08-02T10:09:18.177Z,29.90
2022-08-02T10:20:01.173Z,30.40
2022-08-02T10:29:55.518Z,30.60
2022-08-02T10:40:00.563Z,30.80
2022-08-02T10:50:06.218Z,31.10
2022-08-02T11:00:26.893Z,31.70
2022-08-02T11:10:36.344Z,31.70
2022-08-02T11:20:38.198Z,31.40
2022-08-02T11:30:40.978Z,32.20
2022-08-02T11:40:44.577Z,32.40
2022-08-02T11:50:47.375Z,32.80
2022-08-02T12:00:49.376Z,32.60
2022-08-02T12:10:53.518Z,33.00
2022-08-02T12:20:59.456Z,33.20
2022-08-02T12:31:05.220Z,32.70
2022-08-02T12:41:31.824Z,33.00
2022-08-02T12:51:55.806Z,33.00
2022-08-02T13:02:07.072Z,32.70
2022-08-02T13:12:10.954Z,32.90
2022-08-02T13:22:15.750Z,32.80
2022-08-02T13:32:18.281Z,33.60
2022-08-02T13:42:20.019Z,33.40
2022-08-02T13:52:22.831Z,34.10
2022-08-02T14:02:25.071Z,34.00
2022-08-02T14:12:27.532Z,33.30
2022-08-02T14:22:30.817Z,33.40
2022-08-02T14:32:33.215Z,33.30
2022-08-02T14:42:35.056Z,33.40
2022-08-02T14:52:36.934Z,34.30
2022-08-02T15:02:38.675Z,33.60
2022-08-02T15:12:41.655Z,34.10
2022-08-02T15:22:43.970Z,33.50
2022-08-02T15:32:53.416Z,33.00
2022-08-02T15:42:57.155Z,32.70
2022-08-02T15:52:59.292Z,32.40
2022-08-02T16:03:03.453Z,32.20
2022-08-02T16:13:23.655Z,31.90
2022-08-02T16:24:01.664Z,31.30
2022-08-02T16:33:48.751Z,31.00
2022-08-02T16:43:51.374Z,30.70
2022-08-02T16:54:00.160Z,30.50
2022-08-02T17:04:03.496Z,30.40
2022-08-02T17:14:08.413Z,30.30
2022-08-02T17:24:12.113Z,29.90
2022-08-02T17:34:13.878Z,29.60
2022-08-02T17:44:37.012Z,29.20
2022-08-02T17:54:41.094Z,28.90
2022-08-02T18:04:53.155Z,28.50
2022-08-02T18:14:56.695Z,28.20
2022-08-02T18:24:58.371Z,27.90
2022-08-02T18:35:02.431Z,27.40
2022-08-02T18:45:05.454Z,27.00
2022-08-02T18:55:17.050Z,26.80
2022-08-02T19:05:21.227Z,26.20
2022-08-02T19:15:26.176Z,25.80
2022-08-02T19:25:28.273Z,25.30
2022-08-02T19:36:01.571Z,25.10
2022-08-02T19:46:08.495Z,24.80
2022-08-02T19:56:25.912Z,24.50
2022-08-02T20:06:30.344Z,24.30
2022-08-02T20:16:38.038Z,24.00
2022-08-02T20:38:00.171Z,23.60
2022-08-02T20:47:39.280Z,23.40
2022-08-02T20:58:00.328Z,23.20
2022-08-02T21:08:09.541Z,23.10
2022-08-02T21:18:24.017Z,23.00
2022-08-02T21:28:44.975Z,22.90
2022-08-02T21:38:48.015Z,22.90
2022-08-02T21:48:49.877Z,22.70
2022-08-02T21:58:51.734Z,22.50
2022-08-02T22:08:54.094Z,22.20
2022-08-02T22:18:59.703Z,22.20
2022-08-02T22:29:01.776Z,21.90
2022-08-02T22:39:04.771Z,21.70
2022-08-02T22:49:38.797Z,21.50
2022-08-02T22:59:06.083Z,23.80
2022-08-02T22:59:44.693Z,21.50
2022-08-02T23:09:50.853Z,21.10
2022-08-02T23:19:53.722Z,21.00
2022-08-02T23:29:55.872Z,20.80
2022-08-02T23:39:58.052Z,20.70
2022-08-02T23:49:59.854Z,20.80
